• Join FlightAware (Why Join?)
  • Login
  • US Flag 
05:05AM EDT


 

Airport Tracker/Info


-or-


 

Live Flight TrackerFlight Track Log ✈ N81AU ✈ 25-Jul-2013 ✈ KAAF - KAUO

Flight Track Log - Related Links

Times and Time Zones

All times are in EDT time to prevent confusion due to time zone crossing. See the N81AU flight status page for this flight to view local times or setup timezone preferences in your user account.

Time Position Orientation Groundspeed Altitude Reporting Facility
EDT Latitude Longitude Course Direction KTS MPH feet Rate Location/Type
01:04PM 29.9854 -85.0503 353° North  Level FlightAware Approximate
01:05PM 30.0239 -85.0555 353° North  Level FlightAware Approximate
01:06PM 30.0623 -85.0607 353° North  Level FlightAware Approximate
01:07PM 30.1008 -85.0659 353° North  Level FlightAware Approximate
01:08PM 30.1393 -85.0711 353° North  Level FlightAware Approximate
01:09PM 30.1778 -85.0764 353° North  Level FlightAware Approximate
01:10PM 30.2163 -85.0816 353° North  Level FlightAware Approximate
01:11PM 30.2547 -85.0868 353° North  Level FlightAware Approximate
01:12PM 30.2932 -85.0921 353° North  Level FlightAware Approximate
01:13PM 30.3317 -85.0973 353° North  Level FlightAware Approximate
01:14PM 30.3702 -85.1026 353° North  Level FlightAware Approximate
01:15PM 30.4087 -85.1078 353° North  Level FlightAware Approximate
01:16PM 30.4471 -85.1131 353° North  Level FlightAware Approximate
01:17PM 30.4856 -85.1183 353° North  Level FlightAware Approximate
01:18PM 30.5241 -85.1236 353° North  Level FlightAware Approximate
01:18PM 30.4847 -85.1367 353° North 143 165 6,000  Level Jacksonville Center
01:19PM 30.5626 -85.1289 353° North  Level FlightAware Approximate
01:19PM 30.5389 -85.1428 354° North 143 165 6,000  Level Jacksonville Center
01:20PM 30.6011 -85.1341 353° North  Level FlightAware Approximate
01:20PM 30.5744 -85.1461 355° North 144 166 6,000  Level Jacksonville Center
01:21PM 30.6395 -85.1394 353° North  Level FlightAware Approximate
01:21PM 30.6161 -85.1519 353° North 144 166 6,000  Level Jacksonville Center
01:22PM 30.6780 -85.1447 353° North  Level FlightAware Approximate
01:22PM 30.6578 -85.1578 353° North 144 166 6,000  Level Jacksonville Center
01:23PM 30.7165 -85.1500 353° North  Level FlightAware Approximate
01:23PM 30.6994 -85.1636 353° North 143 165 6,000  Level Jacksonville Center
01:24PM 30.7453 -85.1694 354° North 145 167 6,000  Level Jacksonville Center
01:25PM 30.7847 -85.1753 353° North 144 166 6,000  Level Jacksonville Center
01:26PM 30.8264 -85.1786 356° North 145 167 6,000  Level Jacksonville Center
01:27PM 30.8597 -85.1844 351° North 143 165 6,000  Level Jacksonville Center
01:28PM 30.9014 -85.1903 353° North 144 166 6,000  Level Jacksonville Center
01:29PM 30.9367 -85.1958 352° North 143 165 6,000  Level Jacksonville Center
01:30PM 30.9825 -85.1994 356° North 145 167 6,000  Level Jacksonville Center
01:31PM 31.0200 -85.2053 352° North 147 169 6,000  Level Jacksonville Center
01:32PM 31.0617 -85.2111 353° North 143 165 6,000  Level Jacksonville Center
01:33PM 31.1056 -85.2169 354° North 146 168 6,000  Level Jacksonville Center
01:35PM 31.1472 -85.2228 353° North 145 167 6,000  Level Jacksonville Center
01:36PM 31.1889 -85.2311 350° North 145 167 6,000  Level Jacksonville Center
01:37PM 31.2303 -85.2372 353° North 146 168 6,000  Level Jacksonville Center
01:38PM 31.2678 -85.2428 353° North 146 168 6,000  Level Jacksonville Center
01:39PM 31.3094 -85.2489 353° North 143 165 6,000  Level Jacksonville Center
01:39PM 31.3428 -85.2544 352° North 143 165 6,000  Level Jacksonville Center
01:40PM 31.3825 -85.2581 356° North 144 166 6,000  Level Jacksonville Center
01:41PM 31.4219 -85.2639 353° North 143 165 6,000  Level Jacksonville Center
01:42PM 31.4636 -85.2697 353° North 145 167 6,000  Level Jacksonville Center
01:43PM 31.5011 -85.2756 352° North 142 163 6,000  Level Jacksonville Center
01:45PM 31.5469 -85.2792 356° North 138 159 6,000  Level Jacksonville Center
01:46PM 31.5886 -85.2850 353° North 137 158 6,000  Level Jacksonville Center
01:47PM 31.6281 -85.2911 352° North 139 160 6,000  Level Jacksonville Center
01:48PM 31.6656 -85.2969 352° North 141 162 6,000  Level Jacksonville Center
01:50PM 31.7500 -85.3000 358° North 138 159 6,000  Level Atlanta TRACON
01:51PM 31.7833 -85.3167 337° Northwest 140 161 6,000  Level Atlanta TRACON
01:52PM 31.8167 -85.3167 360° North 147 169 6,000  Level Atlanta TRACON
01:53PM 31.8667 -85.3167 360° North 143 165 6,000  Level Atlanta TRACON
01:54PM 31.9000 -85.3333 337° Northwest 143 165 6,000 -120 Level Atlanta TRACON
01:55PM 31.9500 -85.3333 360° North 149 171 5,800 -300 Descending Atlanta TRACON
01:56PM 31.9833 -85.3333 360° North 159 183 5,400 -480 Descending Atlanta TRACON
01:57PM 32.0333 -85.3500 344° North 160 184 4,900 -480 Descending Atlanta TRACON
01:58PM 32.0667 -85.3500 360° North 162 186 4,500 -480 Descending Atlanta TRACON
01:59PM 32.1167 -85.3667 344° North 160 184 4,000 -540 Descending Atlanta TRACON
02:00PM 32.1667 -85.3667 360° North 162 186 3,500 -480 Descending Atlanta TRACON
02:01PM 32.2000 -85.3667 360° North 159 183 3,100 -240 Descending Atlanta TRACON
02:02PM 32.2500 -85.3833 344° North 148 170 3,100  Level Atlanta TRACON
02:03PM 32.2833 -85.3833 360° North 147 169 3,100 -60 Level Atlanta TRACON
02:04PM 32.3333 -85.4000 344° North 143 165 3,000 -120 Descending Atlanta TRACON